Breckenridge, CO (80424)

7:12 PM MDT on October 01, 2014 (GMT -0600)
Downtown | Change Station
CLOSE
Current Station
Personal Weather Station
Location: Breckenridge, CO
Elevation: 9590 ft
Nearby Weather Stations
Active Advisory: Winter Weather Advisory

Elev 9590 ft 39.48 °N, 106.05 °W | Updated 16 seconds ago

Overcast
Overcast
37.1 °F
Feels Like 37 °F
N
1.0
Wind Variable Wind from NE
Gusts 3.0 mph

Today
High -- | Low -- °F
--% Chance of Precip.
Yesterday
High -- | Low -- °F
Precip. -- in
7:00 AM 6:46 PM
First Quarter, 53% visible
Pressure 29.86 in
Visibility 10.0 miles
Clouds Few 5500 ft
Mostly Cloudy 9000 ft
Overcast 10000 ft
Windchill 37 °F
Dew Point 29 °F
Humidity 73%
Rainfall 0.07 in
Snow Depth 0 in , 1 in , 7 in
UV 0 out of 12
Pollen 3.40 out of 12
Air Quality Not available.
Flu Activity Not available.
METAR KLXV 020053Z AUTO 36006KT 10SM FEW055 BKN090 OVC100 02/M02 A3007 RMK AO2 SLP111 T00171017

More Conditions Fewer Conditions

Pressure 29.86 in
Visibility 10.0 miles
Clouds Few 5500 ft
Mostly Cloudy 9000 ft
Overcast 10000 ft
Windchill 37 °F
Dew Point 29 °F
Humidity 73%
Rainfall 0.07 in
Snow Depth 0 in , 1 in , 7 in
UV 0 out of 12
Pollen 3.40 out of 12
Air Quality Not available.
Flu Activity Not available.
METAR KLXV 020053Z AUTO 36006KT 10SM FEW055 BKN090 OVC100 02/M02 A3007 RMK AO2 SLP111 T00171017

More Conditions Fewer Conditions

10-Day Weather Forecast

Almanac

Astronomy

Oct. 01, 2014 Rise Set
Actual Time 7:00 AM MDT 6:46 PM MDT
Civil Twilight 6:33 AM MDT 7:13 PM MDT
Nautical Twilight 6:02 AM MDT 7:44 PM MDT
Astronomical Twilight 5:30 AM MDT 8:15 PM MDT
Moon 2:02 PM MDT (10/1) No Moon Set
Length of Visible Light 12h 39m
Length of Day
11h 46m
Tomorrow will be 2m 32s shorter.
First Quarter, 53% of the Moon is Illuminated
Today
First Quarter
Oct 8
Full
Oct 15
Last Quarter
Oct 23
New
Oct 30
First Quarter

Today's Extremes

State Highs State Lows

Community

WunderPhotos

Upload Photos

1,758,112 photos uploaded!

WunderBlogs® & News

Nearby

Snow Depth

Station Depth Elevation
Grizzly Peak 0 in 11100 ft
Rawah 1 in 9020 ft
Mccoy Park 7 in 9480 ft
Kiln 0 in 9600 ft
Bear Lake 0 in 9500 ft

Earthquake Activity

City Distance Mag. Time & Date
No recent earthquake activity has been reported nearby.
Minimum magnitude displayed is 2.5.

Coastal Water Temperatures

Place Temperature
No Stations Reporting

Nearby Weather Stations